Edmonton International Airport

CYEG · 艾伯塔, 加拿大

METAR的历史 CYEG · Edmonton International Airport

下面你可以看到过去几天的METARs。 选择年份以浏览从2007年开始的旧METAR。

2024年2月27日

时间 代码 天气 温度 能见度 天花板 METAR/SPECI
06:00
V
-25 °C 10 mi 5.700 ft 210° 210° 2 kt METAR CYEG 271300Z 21002KT 10SM -SN BKN057 BKN092 M25/M28 A3007 RMK SC5AC2 SLP262
05:00
V
-25 °C 10 mi 9.200 ft 360° 360° 0 kt METAR CYEG 271200Z 00000KT 10SM -SN BKN092 M25/M27 A3006 RMK AC7 SLP258
04:00
V
-25 °C 10 mi 8.500 ft 360° 360° 0 kt METAR CYEG 271100Z 00000KT 10SM -SN BKN085 M25/M28 A3005 RMK AC7 SLP254
03:00
V
-26 °C 10 mi 8.500 ft 200° 200° 3 kt METAR CYEG 271000Z 20003KT 10SM -SN BKN085 M26/M28 A3005 RMK AC7 SLP255
02:00
V
-26 °C 10 mi 9.400 ft 210° 210° 4 kt METAR CYEG 270900Z 21004KT 10SM -SN BKN094 M26/M28 A3005 RMK AC7 SLP254
01:00
V
-25 °C 8 mi 25.000 ft 210° 210° 3 kt METAR CYEG 270800Z 21003KT 8SM -SN SCT068 BKN250 M25/M27 A3004 RMK AC4CI2 SLP252
00:00
V
-23 °C 7 mi 6.800 ft 200° 200° 3 kt METAR CYEG 270700Z 20003KT 7SM -SN BKN068 M23/M25 A3005 RMK AC7 SLP251

2024年2月26日

时间 代码 天气 温度 能见度 天花板 METAR/SPECI
23:00
M
-22 °C 5 mi 3.000 ft 290° 290° 2 kt METAR CYEG 270600Z 29002KT 5SM -SN BKN030 BKN061 M22/M25 A3005 RMK SC5SC2 SLP251
22:00
V
-22 °C 6 mi 6.100 ft 290° 290° 3 kt METAR CYEG 270500Z 29003KT 6SM -SN BKN061 OVC078 M22/M24 A3004 RMK SC7AC1 SLP248
21:34
V
-22 °C 6 mi 7.800 ft 310° 310° 2 kt METAR CYEG 270434Z 31002KT 6SM -SN SCT041 OVC078 M22/M24 A3003 RMK SC3AC5 SLP245
21:00
M
-21 °C 5 mi 2.700 ft 340° 340° 3 kt METAR CYEG 270400Z 34003KT 5SM -SN OVC027 M21/M24 A3002 RMK SC8 SLP242
20:00
V
-21 °C 5 mi 3.200 ft 320° 320° 6 kt METAR CYEG 270300Z 32006KT 5SM -SN OVC032 M21/M24 A3001 RMK SC8 SLP238
19:24
V
-21 °C 6 mi 8.000 ft 330° 330° 5 kt METAR CYEG 270224Z 33005KT 6SM -SN FEW020 SCT038 OVC080 M21/M24 A3001 RMK SC1SC3AC4 SLP235
19:00
M
-21 °C 4 mi 3.800 ft 340° 340° 5 kt METAR CYEG 270200Z 34005KT 4SM -SN FEW020 OVC038 M21/M24 A3000 RMK SC1SC7 SLP232
18:00
V
-20 °C 5 mi 4.600 ft 350° 350° 5 kt METAR CYEG 270100Z 35005KT 5SM -SN FEW020 OVC046 M20/M23 A2998 RMK SC2SC6 SLP225
17:50
M
-20 °C 4 mi 4.200 ft 350° 350° 7 kt METAR CYEG 270050Z 35007KT 4SM -SN SCT020 OVC042 M20/M23 A2998 RMK SC3SC5 SLP225
17:35
I
-20 °C 2¼ mi 2.100 ft 340° 340° 8 kt METAR CYEG 270035Z 34008KT 2 1/4SM -SN BR BKN021 OVC160 M20/M23 A2998 RMK SN4SC3AS1 CIG DIF SLP224
17:00
V
-20 °C 5 mi 4.100 ft 350° 350° 7 kt METAR CYEG 270000Z 35007KT 5SM -SN BKN041 BKN160 OVC220 M20/M24 A2997 RMK SC5AS2CS1 CIG DIF SLP218
16:00
M
-20 °C 4 mi 3.200 ft 340° 340° 8 kt METAR CYEG 262300Z 34008KT 4SM -SN BR BKN032 BKN160 OVC220 M20/M23 A2996 RMK SC5AS1CS2 CIG DIF SLP214
15:00
M
-19 °C 4 mi 2.200 ft 350° 350° 9 kt METAR CYEG 262200Z 35009KT 4SM -SN BR BKN022 BKN160 OVC220 M19/M24 A2995 RMK SC5AS2CS1 CIG DIF SLP210
14:35
M
-20 °C 4 mi 3.200 ft 350° 350° 10 kt METAR CYEG 262135Z 35010KT 4SM -SN BR BKN032 BKN160 OVC220 M20/M24 A2995 RMK SC5AS2CS1 CIG DIF SLP208
14:00
M
-19 °C 3 mi 1.800 ft 360° 360° 10 kt METAR CYEG 262100Z 36010KT 3SM -SN BR BKN018 BKN160 OVC220 M19/M24 A2995 RMK SN2SC4AS1CS1 SLP206
13:41
M
-20 °C 3 mi 2.000 ft 360° 360° 9 kt METAR CYEG 262041Z 36009KT 3SM -SN DRSN BKN020 BKN160 OVC220 M20/M24 A2994 RMK SN3SC2AS2CS1 SLP203
13:00
I
-20 °C 2½ mi 2.200 ft 350° 350° 10 kt METAR CYEG 262000Z 35010KT 2 1/2SM -SN DRSN BKN022 OVC220 M20/M24 A2994 RMK SN6SC1CS1 SLP202
12:20
I
-20 °C 1¾ mi 1.800 ft 360° 360° 10 kt METAR CYEG 261920Z 36010KT 1 3/4SM -SN DRSN OVC018 M20/M24 A2994 RMK SN6SC2 SLP202
12:00
I
-20 °C 1½ mi 1.100 ft 010° 010° 12 kt METAR CYEG 261900Z 01012KT 1 1/2SM -SN DRSN VV011 M20/M24 A2993 RMK SN8 CIG VRB 008-014 SLP200
11:28
I
-21 °C 1½ mi 1.300 ft 360° 360° 12 kt METAR CYEG 261828Z 36012KT 1 1/2SM -SN DRSN VV013 M21/M24 A2993 RMK SN8 SUN DIMLY VISBL SLP198
11:09
I
-21 °C 1½ mi 1.600 ft 350° 350° 14 kt METAR CYEG 261809Z 35014KT 1 1/2SM -SN DRSN VV016 M21/M24 A2992 RMK SN8 SUN DIMLY VISBL SLP196
11:00
I
-21 °C 1¼ mi 1.200 ft 350° 350° 13 kt METAR CYEG 261800Z 35013KT 1 1/4SM R02/5500VP6000FT/N -SN DRSN VV012 M21/M24 A2991 RMK SN8 SUN DIMLY VISBL /S02/ SLP194
10:00
I
-21 °C 1¼ mi 1.100 ft 350° 350° 13 kt METAR CYEG 261700Z 35013KT 1 1/4SM R02/5000V6000FT/D R30/5500VP6000FT/U -SN DRSN VV011 M21/M24 A2989 RMK SN8 CIG VRB 008-014 SLP183
09:00
I
-20 °C 1¼ mi 1.100 ft 010° 010° 13 kt METAR CYEG 261600Z 01013KT 1 1/4SM R02/5500V6000FT/N R30/5500VP6000FT/N -SN DRSN VV011 M20/M23 A2985 RMK SN8 CIG VRB 008-014 SLP169
08:38
I
-20 °C 1¼ mi 1.100 ft 350° 350° 14 kt METAR CYEG 261538Z 35014KT 1 1/4SM R02/5500VP6000FT/N -SN DRSN VV011 M20/M23 A2983 RMK SN8 CIG VRB 008-014 SLP162
08:32
I
-20 °C 1¾ mi 1.300 ft 350° 350° 16 kt METAR CYEG 261532Z 35016KT 1 3/4SM R02/5500VP6000FT/N R30/4500VP6000FT/D -SN DRSN VV013 M20/M23 A2983 RMK SN8 SLP161
08:17
I
-20 °C 1¾ mi 1.700 ft 350° 350° 13 kt METAR CYEG 261517Z 35013KT 1 3/4SM -SN DRSN VV017 M20/M23 A2982 RMK SN8 SLP157
08:00
I
-20 °C 1½ mi 1.100 ft 350° 350° 15 kt METAR CYEG 261500Z 35015KT 1 1/2SM -SN DRSN VV011 M20/M23 A2981 RMK SN8 CIG VRB 008-014 /S01/ SLP152
07:52
I
-20 °C 1¼ mi 1.100 ft 350° 350° 13 kt METAR CYEG 261452Z 35013KT 1 1/4SM -SN DRSN VV011 M20/M23 A2980 RMK SN8 CIG VRB 008-014 SLP150
07:44
I
-20 °C 1½ mi 1.100 ft 350° 350° 15 kt METAR CYEG 261444Z 35015KT 1 1/2SM R30/4500VP6000FT/ -SN DRSN VV011 M20/M23 A2980 RMK SN8 CIG VRB 008-014 SLP149
07:00
I
-19 °C 1 mi 900 ft 350° 350° 14 - 19 kt METAR CYEG 261400Z 35014G19KT 1SM R02/P6000FT/U R30/5500VP6000FT/U -SN DRSN VV009 M19/M22 A2977 RMK SN8 CIG VRB 006-012 SLP136
06:54
I
-19 °C 1¼ mi 900 ft 010° 010° 14 kt METAR CYEG 261354Z 01014KT 1 1/4SM R30/3500VP6000FT/U -SN DRSN VV009 M19/M22 A2976 RMK SN8 SLP134
06:00
I
-19 °C 2 mi 2.000 ft 360° 360° 15 kt METAR CYEG 261300Z 36015KT 2SM R02/5500VP6000FT/U -SN DRSN OVC020 M19/M21 A2973 RMK SN3SC5 SLP122
05:00
I
-17 °C 2 mi 2.000 ft 010° 010° 15 - 22 kt METAR CYEG 261200Z 01015G22KT 2SM R30/4000VP6000FT/D -SN DRSN OVC020 M17/M20 A2968 RMK SN3SC5 SLP103
04:31
I
-17 °C 1½ mi 2.200 ft 010° 010° 17 - 24 kt METAR CYEG 261131Z 01017G24KT 1 1/2SM R02/3500VP6000FT/U R30/4000VP6000FT/D -SN DRSN OVC022 M17/M19 A2966 RMK SN4SC4 SLP094
04:26
I
-17 °C 1¾ mi 2.200 ft 010° 010° 18 - 24 kt METAR CYEG 261126Z 01018G24KT 1 3/4SM R02/3500VP6000FT/U -SN BLSN OVC022 M17/M20 A2966 RMK BLSN3SC5 SLP093
04:00
I
-17 °C 1¼ mi 2.000 ft 360° 360° 16 - 26 kt METAR CYEG 261100Z 36016G26KT 1 1/4SM R02/3000VP6000FT/U -SN BLSN OVC020 M17/M19 A2964 RMK BLSN4SC4 /S05/ SLP087
03:52
I
-17 °C 1¼ mi 2.000 ft 360° 360° 22 - 27 kt METAR CYEG 261052Z 36022G27KT 1 1/4SM R02/3000FT/N -SN BLSN OVC020 M17/M19 A2963 RMK BLSN4NS4 PRESRR SLP085
03:00
I
-15 °C 2½ mi 2.200 ft 010° 010° 20 - 27 kt METAR CYEG 261000Z 01020G27KT 2 1/2SM -SN DRSN OVC022 M15/M17 A2958 RMK SN2SC6 SLP065
02:00
I
-13 °C 2¼ mi 1.600 ft 020° 020° 16 - 23 kt METAR CYEG 260900Z 02016G23KT 2 1/4SM R12/3000VP6000FT/U R02/3500VP6000FT/D -SN DRSN OVC016 M13/M15 A2951 RMK SN4SC4 /S03/ SLP039
01:14
I
-12 °C 1½ mi 1.700 ft 020° 020° 19 - 25 kt METAR CYEG 260814Z 02019G25KT 1 1/2SM R12/2800V4500FT/N R02/3000VP6000FT/U -SN DRSN OVC017 M12/M14 A2948 RMK SN6SC2 SLP027
01:00
I
-12 °C 1 mi 1.100 ft 020° 020° 15 - 24 kt METAR CYEG 260800Z 02015G24KT 1SM R12/4000VP6000FT/U R02/3000V5500FT/N -SN BLSN OVC011 M12/M13 A2947 RMK SN3SC5 SLP022
00:47
I
-12 °C 1½ mi 2.100 ft 030° 030° 19 - 29 kt METAR CYEG 260747Z 03019G29KT 1 1/2SM R12/2800VP6000FT/U R02/2800VP6000FT/U -SN BLSN OVC021 M12/M14 A2946 RMK BLSN3SC5 SLP018
00:33
I
-11 °C 1 mi 1.400 ft 030° 030° 21 kt METAR CYEG 260733Z 03021KT 1SM R12/4500VP6000FT/N R02/2800VP6000FT/U -SN BLSN OVC014 M11/M13 A2944 RMK BLSN4SC4 SLP013
00:19
L
-11 °C ¾ mi 400 ft 020° 020° 18 - 25 kt METAR CYEG 260719Z 02018G25KT 3/4SM R12/3500V6000FT/N R02/2200V5000FT/N -SN BLSN VV004 M11/M13 A2943 RMK BLSN8 SLP008
00:00
L
-11 °C ½ mi 400 ft 040° 040° 25 - 30 kt METAR CYEG 260700Z 04025G30KT 1/2SM R12/3000V3500FT/N R02/1600V2000FT/N -SN BLSN VV004 M11/M13 A2942 RMK BLSN8 /S01/ SLP003

2024年2月25日

时间 代码 天气 温度 能见度 天花板 METAR/SPECI
23:00
L
-10 °C ½ mi 1.400 ft 030° 030° 21 - 30 kt METAR CYEG 260600Z 03021G30KT 1/2SM R12/2000FT/N R02/3000V3500FT/N -SN BLSN OVC014 M10/M12 A2936 RMK BLSN3SC5 /S04/ SLP982
22:19
L
-9 °C ½ mi 1.400 ft 040° 040° 19 - 28 kt METAR CYEG 260519Z 04019G28KT 1/2SM R12/3500VP6000FT/D R02/2600V3000FT/N -SN BLSN OVC014 M09/M10 A2932 RMK SC8 PRESRR SLP969
22:00
I
-8 °C 1¼ mi 2.000 ft 040° 040° 19 - 29 kt METAR CYEG 260500Z 04019G29KT 1 1/4SM R02/3000VP6000FT/U -SN BLSN FEW014 OVC020 M08/M10 A2930 RMK SC1SC7 SLP962
21:50
I
-8 °C 1¼ mi 2.200 ft 040° 040° 23 - 29 kt METAR CYEG 260450Z 04023G29KT 1 1/4SM R02/5500VP6000FT/D -SN BLSN OVC022 M08/M10 A2930 RMK SC8 SLP962
21:42
I
-8 °C 3 mi 2.200 ft 030° 030° 18 - 25 kt METAR CYEG 260442Z 03018G25KT 3SM -SN DRSN OVC022 M08/M10 A2930 RMK SC8 PRESRR SLP961
21:23
M
-8 °C 4 mi 4.300 ft 050° 050° 23 - 29 kt METAR CYEG 260423Z 05023G29KT 4SM -SN BLSN FEW017 OVC043 M08/M10 A2926 RMK SC1SC7 SLP949
21:12
M
-8 °C 3 mi 4.400 ft 050° 050° 22 - 27 kt METAR CYEG 260412Z 05022G27KT 3SM -SN BLSN FEW017 OVC044 M08/M10 A2925 RMK SC2SC6 SLP946
21:00
I
-8 °C 2½ mi 4.400 ft 060° 060° 19 - 26 kt METAR CYEG 260400Z 06019G26KT 2 1/2SM -SN BLSN OVC044 M08/M10 A2925 RMK SC8 SLP945
20:53
I
-7 °C 3 mi 4.300 ft 050° 050° 18 - 28 kt METAR CYEG 260353Z 05018G28KT 3SM -SN DRSN OVC043 M07/M09 A2925 RMK SC8 SLP943
20:00
V
-6 °C 8 mi 4.000 ft 070° 070° 25 - 33 kt METAR CYEG 260300Z 07025G33KT 8SM -SN DRSN SCT015 OVC040 M06/M08 A2922 RMK SC3SC5 SLP936
19:46
V
-6 °C 8 mi 3.600 ft 070° 070° 22 kt METAR CYEG 260246Z 07022KT 8SM -SN DRSN FEW015 OVC036 M06/M08 A2923 RMK SC2SC6 SLP937
19:36
V
-6 °C 6 mi 3.700 ft 070° 070° 21 kt METAR CYEG 260236Z 07021KT 6SM -SN BR DRSN FEW015 OVC037 M06/M07 A2923 RMK SC1SC7 SLP938
19:24
M
-5 °C 4 mi 3.500 ft 060° 060° 16 - 24 kt METAR CYEG 260224Z 06016G24KT 4SM -SN BR DRSN OVC035 M05/M07 A2923 RMK SC8 SLP940
19:14
I
-5 °C 2 mi 3.500 ft 060° 060° 16 - 22 kt METAR CYEG 260214Z 06016G22KT 2SM -SN BR DRSN OVC035 M05/M06 A2923 RMK SN2SC6 PRESRR SLP937
19:00
I
-5 °C 1 mi 900 ft 070° 070° 19 - 24 kt METAR CYEG 260200Z 07019G24KT 1SM R12/P6000FT/D R02/P6000FT/N -SN BR DRSN VV009 M05/M06 A2921 RMK SN8 CIG VRB 006-012 VIS VRB 3/4-1 1/4 /S01/ SLP932
18:42
I
-5 °C 1 mi 900 ft 070° 070° 18 kt METAR CYEG 260142Z CCA 07018KT 1SM R12/6000FT/D R02/6000FT/D -SN BR DRSN VV009 M05/M06 A2922 RMK SN8 CIG VRB 006-012 VIS VRB 3/4-1 1/4 SLP935
18:31
I
-4 °C 1¼ mi 1.200 ft 060° 060° 14 - 20 kt METAR CYEG 260131Z 06014G20KT 1 1/4SM -SN BR DRSN VV012 M04/M05 A2922 RMK SN8 CIG VRB 009-015 SLP934
18:22
L
-4 °C ⅝ mi 2.000 ft 060° 060° 11 - 20 kt METAR CYEG 260122Z 06011G20KT 5/8SM R12/5000VP6000FT/U R02/5000VP6000FT/U -SN BR DRSN OVC020 M04/M04 A2922 RMK SN6NS2 SLP934
18:04
L
-3 °C ⅜ mi 400 ft 070° 070° 15 kt METAR CYEG 260104Z 07015KT 3/8SM R12/P6000FT/D R02/6000FT/D -SN FZFG VV004 M03/M04 A2921 RMK SN8 SLP931
17:38
I
-3 °C 1 mi 1.000 ft 070° 070° 10 kt METAR CYEG 260038Z 07010KT 1SM R12/6000FT/U R02/5000V6000FT/N -SN BR OVC010 M03/M03 A2921 RMK SN6ST2 CIG VRB 007-013 SLP930
17:22
L
-3 °C ⅝ mi 600 ft 080° 080° 10 kt METAR CYEG 260022Z 08010KT 5/8SM R12/P6000FT/N R02/5000V6000FT/U -SN BR OVC006 M03/M03 A2921 RMK SN6ST2 SLP930
17:10
L
-2 °C ⅝ mi 1.300 ft 100° 100° 12 kt METAR CYEG 260010Z CCA 10012KT 5/8SM R12/6000FT/D R02/5500V6000FT/D -SN BR DRSN OVC013 M02/M03 A2922 RMK SN6NS2 SLP932
17:00
I
-3 °C 2½ mi 2.900 ft 100° 100° 14 - 22 kt METAR CYEG 260000Z 10014G22KT 2 1/2SM -SN BR DRSN SCT007 OVC029 M03/M04 A2922 RMK SN3ST1NS4 SLP931
16:42
I
-2 °C 1½ mi 700 ft 090° 090° 12 kt METAR CYEG 252342Z 09012KT 1 1/2SM R02/5500VP6000FT/N -SN BR DRSN BKN007 OVC028 M02/M03 A2922 RMK SN5ST1NS2 SLP933
16:32
I
-2 °C 1¼ mi 1.200 ft 090° 090° 11 kt METAR CYEG 252332Z 09011KT 1 1/4SM -SN BR DRSN BKN012 OVC026 M02/M03 A2922 RMK SN5ST1NS2 SLP934
16:06
I
-3 °C 1½ mi 2.600 ft 100° 100° 17 kt METAR CYEG 252306Z 10017KT 1 1/2SM -SN BR DRSN OVC026 M03/M03 A2922 RMK SN6NS2 SLP933
15:19
L
-2 °C ⅝ mi 1.000 ft 100° 100° 15 kt METAR CYEG 252219Z 10015KT 5/8SM R12/5500VP6000FT/N R02/5000V5500FT/N -SN VV010 M02/M03 A2924 RMK SN8 CIG VRB 007-013 SLP938
15:07
L
-2 °C ¾ mi 1.100 ft 090° 090° 15 kt METAR CYEG 252207Z 09015KT 3/4SM R12/P6000FT/D R02/P6000FT/D -SN VV011 M02/M03 A2925 RMK SN8 CIG VRB 008-014 SLP942
14:00
I
-2 °C 1¼ mi 1.100 ft 110° 110° 10 - 16 kt METAR CYEG 252100Z 11010G16KT 1 1/4SM -SN BR VV011 M02/M03 A2930 RMK SN8 CIG VRB 008-014 SLP958
13:32
I
-1 °C 2½ mi 1.200 ft 130° 130° 11 kt METAR CYEG 252032Z 13011KT 2 1/2SM -SN BR VV012 M01/M04 A2932 RMK SN8 SUN DIMLY VISBL SLP965
13:27
M
-1 °C 4 mi 1.500 ft 120° 120° 12 kt METAR CYEG 252027Z 12012KT 4SM -SN BR BKN015 OVC023 M01/M04 A2933 RMK SC6SC2 SUN DIMLY VISBL SLP967
13:00
M
-1 °C 12 mi 2.300 ft 120° 120° 10 kt METAR CYEG 252000Z CCA 12010KT 12SM -SN SCT016 BKN023 OVC140 M01/M04 A2935 RMK SC3SC4AS1 -SN INTMT BR SLP975
12:24
M
-1 °C 12 mi 2.400 ft 150° 150° 6 kt METAR CYEG 251924Z 15006KT 12SM -SN FEW015 BKN024 OVC140 M01/M05 A2938 RMK SC2SC5AS1 SLP985
12:00
V
-1 °C 20 mi 4.000 ft 150° 150° 6 kt METAR CYEG 251900Z 15006KT 20SM FEW015 BKN040 OVC160 M01/M04 A2940 RMK SC2SC4AS2 VIRGA PTCHS SLP992
11:00
V
-2 °C 20 mi 6.000 ft 100° 100° 7 kt METAR CYEG 251800Z 10007KT 20SM SCT029 BKN060 OVC180 M02/M04 A2943 RMK SC3SC2AS3 VIRGA PTCHS SLP001
10:00
V
-2 °C 20 mi 18.000 ft 080° 080° 3 kt METAR CYEG 251700Z 08003KT 20SM SCT092 SCT120 BKN180 BKN250 M02/M04 A2946 RMK AC3AC1AS2CI1 VIRGA PTCHS SLP012
09:00
V
-5 °C 20 mi 9.200 ft Var Var 6 kt METAR CYEG 251600Z VRB06KT 20SM BKN092 BKN160 BKN250 M05/M06 A2948 RMK AC6AS1CI1 CI TR SLP021
08:00
V
-5 °C 20 mi 12.000 ft 180° 180° 6 kt METAR CYEG 251500Z 18006KT 20SM BKN120 BKN160 M05/M06 A2949 RMK AC6AS1 VIRGA PTCHS FROIN SLP026
07:00
V
-7 °C 20 mi 16.000 ft 190° 190° 6 kt METAR CYEG 251400Z 19006KT 20SM SCT120 BKN160 M07/M08 A2951 RMK AC3AS3 FROIN SLP033
06:00
V
-6 °C 20 mi 12.000 ft 190° 190° 5 kt METAR CYEG 251300Z 19005KT 20SM BKN120 M06/M07 A2953 RMK AC5 SLP038
05:00
V
-6 °C 20 mi 12.000 ft 180° 180° 6 kt METAR CYEG 251200Z CCA 18006KT 20SM BKN120 M06/M07 A2954 RMK AC5 FROIN SLP041
04:00
V
-7 °C 20 mi 20.000 ft 160° 160° 5 kt METAR CYEG 251100Z 16005KT 20SM SCT120 BKN200 M07/M08 A2955 RMK AC3CI3 SLP044
03:00
V
-5 °C 20 mi 12.000 ft 170° 170° 6 kt METAR CYEG 251000Z 17006KT 20SM FEW035 BKN120 BKN200 M05/M06 A2956 RMK SC2AC3CI2 SLP046
02:00
V
-4 °C 20 mi 12.000 ft 190° 190° 8 kt METAR CYEG 250900Z 19008KT 20SM SCT035 BKN120 BKN200 M04/M05 A2957 RMK SC4AC2CI1 SLP049
01:00
V
-6 °C 20 mi 20.000 ft 180° 180° 5 kt METAR CYEG 250800Z 18005KT 20SM FEW070 BKN200 M06/M07 A2959 RMK AC2CI5 SLP057
00:00
V
-6 °C 20 mi 20.000 ft 200° 200° 5 kt METAR CYEG 250700Z 20005KT 20SM SCT160 BKN200 M06/M08 A2960 RMK AC3CI3 SLP063

2024年2月24日

时间 代码 天气 温度 能见度 天花板 METAR/SPECI
23:37
V
-5 °C 20 mi 16.000 ft 200° 200° 5 kt METAR CYEG 250637Z 20005KT 20SM SCT046 BKN160 M05/M07 A2961 RMK SC3AC3 SLP064
23:00
V
-3 °C 15 mi 4.600 ft 220° 220° 6 kt METAR CYEG 250600Z 22006KT 15SM -SN BKN046 BKN160 M03/M06 A2962 RMK SC6AC1 SLP067